<?xml version="1.0" encoding="UTF-8" standalone="no" ?>
<gpx xmlns="http://www.topografix.com/GPX/1/1" xmlns:xsi="http://www.w3.org/2001/XMLSchema-instance" xsi:schemaLocation="http://www.topografix.com/GPX/1/1 http://www.topografix.com/GPX/1/1/gpx.xsd" version="1.1" creator="VisuGPX - https://www.visugpx.com">
  <metadata>
    <name>boucles beaumont</name>
    <desc><![CDATA[boucles beaumont du périgord]]></desc>
  </metadata>
  <trk>
    <name><![CDATA[BBmt05]]></name>
    <trkseg>
      <trkpt lat="44.78" lon="0.75125">
        <ele>90</ele>
        <time>2008-12-08T14:29:21Z</time>
      </trkpt>
      <trkpt lat="44.7799" lon="0.75103">
        <ele>91</ele>
        <time>2008-12-08T14:39:05Z</time>
      </trkpt>
      <trkpt lat="44.77983" lon="0.75073">
        <ele>93</ele>
        <time>2008-12-08T14:39:16Z</time>
      </trkpt>
      <trkpt lat="44.77973" lon="0.7505">
        <ele>94</ele>
        <time>2008-12-08T14:39:20Z</time>
      </trkpt>
      <trkpt lat="44.77965" lon="0.7502">
        <ele>97</ele>
        <time>2008-12-08T14:39:24Z</time>
      </trkpt>
      <trkpt lat="44.77955" lon="0.74993">
        <ele>97</ele>
        <time>2008-12-08T14:39:27Z</time>
      </trkpt>
      <trkpt lat="44.77943" lon="0.7496">
        <ele>100</ele>
        <time>2008-12-08T14:39:30Z</time>
      </trkpt>
      <trkpt lat="44.77933" lon="0.7493">
        <ele>104</ele>
        <time>2008-12-08T14:39:33Z</time>
      </trkpt>
      <trkpt lat="44.77925" lon="0.749">
        <ele>105</ele>
        <time>2008-12-08T14:39:36Z</time>
      </trkpt>
      <trkpt lat="44.7792" lon="0.74863">
        <ele>108</ele>
        <time>2008-12-08T14:39:39Z</time>
      </trkpt>
      <trkpt lat="44.77918" lon="0.74828">
        <ele>110</ele>
        <time>2008-12-08T14:39:42Z</time>
      </trkpt>
      <trkpt lat="44.77918" lon="0.74795">
        <ele>112</ele>
        <time>2008-12-08T14:39:45Z</time>
      </trkpt>
      <trkpt lat="44.7792" lon="0.74763">
        <ele>113</ele>
        <time>2008-12-08T14:39:48Z</time>
      </trkpt>
      <trkpt lat="44.77925" lon="0.74733">
        <ele>112</ele>
        <time>2008-12-08T14:39:51Z</time>
      </trkpt>
      <trkpt lat="44.77928" lon="0.747">
        <ele>111</ele>
        <time>2008-12-08T14:39:54Z</time>
      </trkpt>
      <trkpt lat="44.77935" lon="0.74673">
        <ele>110</ele>
        <time>2008-12-08T14:39:57Z</time>
      </trkpt>
      <trkpt lat="44.77945" lon="0.74648">
        <ele>109</ele>
        <time>2008-12-08T14:40:00Z</time>
      </trkpt>
      <trkpt lat="44.77958" lon="0.74623">
        <ele>108</ele>
        <time>2008-12-08T14:40:03Z</time>
      </trkpt>
      <trkpt lat="44.77975" lon="0.746">
        <ele>106</ele>
        <time>2008-12-08T14:40:05Z</time>
      </trkpt>
      <trkpt lat="44.77993" lon="0.74575">
        <ele>103</ele>
        <time>2008-12-08T14:40:09Z</time>
      </trkpt>
      <trkpt lat="44.7801" lon="0.74548">
        <ele>102</ele>
        <time>2008-12-08T14:40:12Z</time>
      </trkpt>
      <trkpt lat="44.7803" lon="0.74523">
        <ele>99</ele>
        <time>2008-12-08T14:40:15Z</time>
      </trkpt>
      <trkpt lat="44.7805" lon="0.74498">
        <ele>94</ele>
        <time>2008-12-08T14:40:18Z</time>
      </trkpt>
      <trkpt lat="44.7807" lon="0.7448">
        <ele>93</ele>
        <time>2008-12-08T14:40:21Z</time>
      </trkpt>
      <trkpt lat="44.78088" lon="0.74463">
        <ele>92</ele>
        <time>2008-12-08T14:40:24Z</time>
      </trkpt>
      <trkpt lat="44.78093" lon="0.74428">
        <ele>90</ele>
        <time>2008-12-08T14:40:28Z</time>
      </trkpt>
      <trkpt lat="44.78085" lon="0.74393">
        <ele>90</ele>
        <time>2008-12-08T14:40:31Z</time>
      </trkpt>
      <trkpt lat="44.78078" lon="0.74365">
        <ele>90</ele>
        <time>2008-12-08T14:40:33Z</time>
      </trkpt>
      <trkpt lat="44.78075" lon="0.74338">
        <ele>93</ele>
        <time>2008-12-08T14:40:35Z</time>
      </trkpt>
      <trkpt lat="44.78075" lon="0.7431">
        <ele>95</ele>
        <time>2008-12-08T14:40:37Z</time>
      </trkpt>
      <trkpt lat="44.78088" lon="0.74268">
        <ele>99</ele>
        <time>2008-12-08T14:40:40Z</time>
      </trkpt>
      <trkpt lat="44.781" lon="0.7424">
        <ele>101</ele>
        <time>2008-12-08T14:40:42Z</time>
      </trkpt>
      <trkpt lat="44.78115" lon="0.74218">
        <ele>104</ele>
        <time>2008-12-08T14:40:44Z</time>
      </trkpt>
      <trkpt lat="44.7813" lon="0.74193">
        <ele>106</ele>
        <time>2008-12-08T14:40:46Z</time>
      </trkpt>
      <trkpt lat="44.7815" lon="0.7416">
        <ele>109</ele>
        <time>2008-12-08T14:40:49Z</time>
      </trkpt>
      <trkpt lat="44.78163" lon="0.7414">
        <ele>112</ele>
        <time>2008-12-08T14:40:51Z</time>
      </trkpt>
      <trkpt lat="44.78178" lon="0.74113">
        <ele>114</ele>
        <time>2008-12-08T14:40:54Z</time>
      </trkpt>
      <trkpt lat="44.78195" lon="0.74083">
        <ele>116</ele>
        <time>2008-12-08T14:40:57Z</time>
      </trkpt>
      <trkpt lat="44.78205" lon="0.7406">
        <ele>120</ele>
        <time>2008-12-08T14:40:59Z</time>
      </trkpt>
      <trkpt lat="44.78215" lon="0.74038">
        <ele>122</ele>
        <time>2008-12-08T14:41:01Z</time>
      </trkpt>
      <trkpt lat="44.78223" lon="0.74008">
        <ele>125</ele>
        <time>2008-12-08T14:41:04Z</time>
      </trkpt>
      <trkpt lat="44.78233" lon="0.73985">
        <ele>131</ele>
        <time>2008-12-08T14:41:09Z</time>
      </trkpt>
      <trkpt lat="44.78238" lon="0.7396">
        <ele>136</ele>
        <time>2008-12-08T14:41:24Z</time>
      </trkpt>
      <trkpt lat="44.78243" lon="0.73935">
        <ele>141</ele>
        <time>2008-12-08T14:41:30Z</time>
      </trkpt>
      <trkpt lat="44.78248" lon="0.73905">
        <ele>144</ele>
        <time>2008-12-08T14:41:34Z</time>
      </trkpt>
      <trkpt lat="44.78253" lon="0.73878">
        <ele>148</ele>
        <time>2008-12-08T14:41:38Z</time>
      </trkpt>
      <trkpt lat="44.78255" lon="0.7385">
        <ele>152</ele>
        <time>2008-12-08T14:41:42Z</time>
      </trkpt>
      <trkpt lat="44.78258" lon="0.7382">
        <ele>156</ele>
        <time>2008-12-08T14:41:48Z</time>
      </trkpt>
      <trkpt lat="44.7826" lon="0.7379">
        <ele>155</ele>
        <time>2008-12-08T14:41:53Z</time>
      </trkpt>
      <trkpt lat="44.7826" lon="0.73763">
        <ele>152</ele>
        <time>2008-12-08T14:41:57Z</time>
      </trkpt>
      <trkpt lat="44.78258" lon="0.7373">
        <ele>149</ele>
        <time>2008-12-08T14:42:01Z</time>
      </trkpt>
      <trkpt lat="44.78253" lon="0.73703">
        <ele>147</ele>
        <time>2008-12-08T14:42:05Z</time>
      </trkpt>
      <trkpt lat="44.78243" lon="0.73678">
        <ele>144</ele>
        <time>2008-12-08T14:42:09Z</time>
      </trkpt>
      <trkpt lat="44.78235" lon="0.73653">
        <ele>143</ele>
        <time>2008-12-08T14:42:13Z</time>
      </trkpt>
      <trkpt lat="44.78225" lon="0.7363">
        <ele>144</ele>
        <time>2008-12-08T14:42:17Z</time>
      </trkpt>
      <trkpt lat="44.7822" lon="0.73605">
        <ele>143</ele>
        <time>2008-12-08T14:42:22Z</time>
      </trkpt>
      <trkpt lat="44.78215" lon="0.7358">
        <ele>141</ele>
        <time>2008-12-08T14:42:27Z</time>
      </trkpt>
      <trkpt lat="44.78203" lon="0.7356">
        <ele>136</ele>
        <time>2008-12-08T14:42:33Z</time>
      </trkpt>
      <trkpt lat="44.78188" lon="0.7354">
        <ele>129</ele>
        <time>2008-12-08T14:42:39Z</time>
      </trkpt>
      <trkpt lat="44.78173" lon="0.7352">
        <ele>125</ele>
        <time>2008-12-08T14:42:45Z</time>
      </trkpt>
      <trkpt lat="44.78155" lon="0.73503">
        <ele>124</ele>
        <time>2008-12-08T14:42:50Z</time>
      </trkpt>
      <trkpt lat="44.7814" lon="0.73483">
        <ele>118</ele>
        <time>2008-12-08T14:42:56Z</time>
      </trkpt>
      <trkpt lat="44.78123" lon="0.73463">
        <ele>118</ele>
        <time>2008-12-08T14:43:00Z</time>
      </trkpt>
      <trkpt lat="44.78108" lon="0.73445">
        <ele>118</ele>
        <time>2008-12-08T14:43:04Z</time>
      </trkpt>
      <trkpt lat="44.78093" lon="0.73425">
        <ele>117</ele>
        <time>2008-12-08T14:43:09Z</time>
      </trkpt>
      <trkpt lat="44.78078" lon="0.73408">
        <ele>118</ele>
        <time>2008-12-08T14:43:16Z</time>
      </trkpt>
      <trkpt lat="44.7806" lon="0.73393">
        <ele>117</ele>
        <time>2008-12-08T14:43:21Z</time>
      </trkpt>
      <trkpt lat="44.7805" lon="0.73365">
        <ele>118</ele>
        <time>2008-12-08T14:43:27Z</time>
      </trkpt>
      <trkpt lat="44.78043" lon="0.7334">
        <ele>120</ele>
        <time>2008-12-08T14:43:30Z</time>
      </trkpt>
      <trkpt lat="44.78045" lon="0.7331">
        <ele>121</ele>
        <time>2008-12-08T14:43:36Z</time>
      </trkpt>
      <trkpt lat="44.78055" lon="0.73283">
        <ele>122</ele>
        <time>2008-12-08T14:43:40Z</time>
      </trkpt>
      <trkpt lat="44.7806" lon="0.73258">
        <ele>122</ele>
        <time>2008-12-08T14:43:44Z</time>
      </trkpt>
      <trkpt lat="44.78068" lon="0.73228">
        <ele>122</ele>
        <time>2008-12-08T14:43:48Z</time>
      </trkpt>
      <trkpt lat="44.7807" lon="0.73195">
        <ele>121</ele>
        <time>2008-12-08T14:43:53Z</time>
      </trkpt>
      <trkpt lat="44.78073" lon="0.73168">
        <ele>125</ele>
        <time>2008-12-08T14:43:57Z</time>
      </trkpt>
      <trkpt lat="44.7808" lon="0.7314">
        <ele>129</ele>
        <time>2008-12-08T14:44:01Z</time>
      </trkpt>
      <trkpt lat="44.78088" lon="0.7311">
        <ele>133</ele>
        <time>2008-12-08T14:44:05Z</time>
      </trkpt>
      <trkpt lat="44.7809" lon="0.7308">
        <ele>136</ele>
        <time>2008-12-08T14:44:11Z</time>
      </trkpt>
      <trkpt lat="44.78093" lon="0.7305">
        <ele>139</ele>
        <time>2008-12-08T14:44:16Z</time>
      </trkpt>
      <trkpt lat="44.78095" lon="0.7302">
        <ele>140</ele>
        <time>2008-12-08T14:44:20Z</time>
      </trkpt>
      <trkpt lat="44.781" lon="0.7299">
        <ele>142</ele>
        <time>2008-12-08T14:44:24Z</time>
      </trkpt>
      <trkpt lat="44.78103" lon="0.72958">
        <ele>145</ele>
        <time>2008-12-08T14:44:29Z</time>
      </trkpt>
      <trkpt lat="44.78105" lon="0.72925">
        <ele>148</ele>
        <time>2008-12-08T14:44:34Z</time>
      </trkpt>
      <trkpt lat="44.78108" lon="0.72895">
        <ele>152</ele>
        <time>2008-12-08T14:44:39Z</time>
      </trkpt>
      <trkpt lat="44.7811" lon="0.72863">
        <ele>155</ele>
        <time>2008-12-08T14:44:43Z</time>
      </trkpt>
      <trkpt lat="44.7811" lon="0.72833">
        <ele>157</ele>
        <time>2008-12-08T14:44:49Z</time>
      </trkpt>
      <trkpt lat="44.7811" lon="0.72805">
        <ele>159</ele>
        <time>2008-12-08T14:44:53Z</time>
      </trkpt>
      <trkpt lat="44.78108" lon="0.72773">
        <ele>164</ele>
        <time>2008-12-08T14:44:57Z</time>
      </trkpt>
      <trkpt lat="44.78108" lon="0.7274">
        <ele>166</ele>
        <time>2008-12-08T14:45:01Z</time>
      </trkpt>
      <trkpt lat="44.78105" lon="0.72713">
        <ele>167</ele>
        <time>2008-12-08T14:45:06Z</time>
      </trkpt>
      <trkpt lat="44.781" lon="0.72688">
        <ele>160</ele>
        <time>2008-12-08T14:45:23Z</time>
      </trkpt>
      <trkpt lat="44.781" lon="0.7266">
        <ele>159</ele>
        <time>2008-12-08T14:45:35Z</time>
      </trkpt>
      <trkpt lat="44.78098" lon="0.7263">
        <ele>159</ele>
        <time>2008-12-08T14:45:41Z</time>
      </trkpt>
      <trkpt lat="44.78095" lon="0.72603">
        <ele>158</ele>
        <time>2008-12-08T14:45:45Z</time>
      </trkpt>
      <trkpt lat="44.7809" lon="0.72575">
        <ele>156</ele>
        <time>2008-12-08T14:45:55Z</time>
      </trkpt>
      <trkpt lat="44.78088" lon="0.72545">
        <ele>153</ele>
        <time>2008-12-08T14:46:00Z</time>
      </trkpt>
      <trkpt lat="44.78083" lon="0.7252">
        <ele>149</ele>
        <time>2008-12-08T14:46:04Z</time>
      </trkpt>
      <trkpt lat="44.7808" lon="0.7249">
        <ele>149</ele>
        <time>2008-12-08T14:46:09Z</time>
      </trkpt>
      <trkpt lat="44.78078" lon="0.72458">
        <ele>150</ele>
        <time>2008-12-08T14:46:14Z</time>
      </trkpt>
      <trkpt lat="44.78075" lon="0.72425">
        <ele>151</ele>
        <time>2008-12-08T14:46:19Z</time>
      </trkpt>
      <trkpt lat="44.78073" lon="0.72395">
        <ele>152</ele>
        <time>2008-12-08T14:46:23Z</time>
      </trkpt>
      <trkpt lat="44.7807" lon="0.72368">
        <ele>154</ele>
        <time>2008-12-08T14:46:27Z</time>
      </trkpt>
      <trkpt lat="44.78078" lon="0.72343">
        <ele>155</ele>
        <time>2008-12-08T14:46:31Z</time>
      </trkpt>
      <trkpt lat="44.78085" lon="0.72318">
        <ele>155</ele>
        <time>2008-12-08T14:46:34Z</time>
      </trkpt>
      <trkpt lat="44.7809" lon="0.72293">
        <ele>155</ele>
        <time>2008-12-08T14:46:36Z</time>
      </trkpt>
      <trkpt lat="44.78093" lon="0.7226">
        <ele>156</ele>
        <time>2008-12-08T14:46:41Z</time>
      </trkpt>
      <trkpt lat="44.78093" lon="0.72233">
        <ele>155</ele>
        <time>2008-12-08T14:46:46Z</time>
      </trkpt>
      <trkpt lat="44.78095" lon="0.72205">
        <ele>152</ele>
        <time>2008-12-08T14:46:50Z</time>
      </trkpt>
      <trkpt lat="44.78095" lon="0.72178">
        <ele>151</ele>
        <time>2008-12-08T14:46:54Z</time>
      </trkpt>
      <trkpt lat="44.78093" lon="0.7215">
        <ele>148</ele>
        <time>2008-12-08T14:46:58Z</time>
      </trkpt>
      <trkpt lat="44.78093" lon="0.72123">
        <ele>145</ele>
        <time>2008-12-08T14:47:02Z</time>
      </trkpt>
      <trkpt lat="44.7809" lon="0.7209">
        <ele>143</ele>
        <time>2008-12-08T14:47:06Z</time>
      </trkpt>
      <trkpt lat="44.7809" lon="0.72058">
        <ele>140</ele>
        <time>2008-12-08T14:47:10Z</time>
      </trkpt>
      <trkpt lat="44.78088" lon="0.7203">
        <ele>136</ele>
        <time>2008-12-08T14:47:15Z</time>
      </trkpt>
      <trkpt lat="44.78088" lon="0.72003">
        <ele>135</ele>
        <time>2008-12-08T14:47:19Z</time>
      </trkpt>
      <trkpt lat="44.7809" lon="0.71975">
        <ele>134</ele>
        <time>2008-12-08T14:47:25Z</time>
      </trkpt>
      <trkpt lat="44.7809" lon="0.71945">
        <ele>134</ele>
        <time>2008-12-08T14:47:32Z</time>
      </trkpt>
      <trkpt lat="44.78093" lon="0.71913">
        <ele>130</ele>
        <time>2008-12-08T14:47:38Z</time>
      </trkpt>
      <trkpt lat="44.78098" lon="0.71888">
        <ele>134</ele>
        <time>2008-12-08T14:47:42Z</time>
      </trkpt>
      <trkpt lat="44.781" lon="0.71858">
        <ele>138</ele>
        <time>2008-12-08T14:47:45Z</time>
      </trkpt>
      <trkpt lat="44.78105" lon="0.7183">
        <ele>139</ele>
        <time>2008-12-08T14:47:51Z</time>
      </trkpt>
    </trkseg>
  </trk>
</gpx>